sensor_id;sensor_type;location;lat;lon;timestamp;temperature;humidity
39079;DHT22;24829;49.208;12.080;2023-08-08T00:00:51;10.90;99.90
39079;DHT22;24829;49.208;12.080;2023-08-08T00:03:16;10.90;99.90
39079;DHT22;24829;49.208;12.080;2023-08-08T00:05:42;10.80;99.90
39079;DHT22;24829;49.208;12.080;2023-08-08T00:08:07;10.80;99.90
39079;DHT22;24829;49.208;12.080;2023-08-08T00:10:33;10.90;99.90
39079;DHT22;24829;49.208;12.080;2023-08-08T00:12:58;10.90;99.90
39079;DHT22;24829;49.208;12.080;2023-08-08T00:15:24;10.90;99.90
39079;DHT22;24829;49.208;12.080;2023-08-08T00:17:50;10.90;99.90
39079;DHT22;24829;49.208;12.080;2023-08-08T00:20:15;10.90;99.90
39079;DHT22;24829;49.208;12.080;2023-08-08T00:22:41;10.90;99.90
39079;DHT22;24829;49.208;12.080;2023-08-08T00:25:07;10.90;99.90
39079;DHT22;24829;49.208;12.080;2023-08-08T00:27:32;10.90;99.90
39079;DHT22;24829;49.208;12.080;2023-08-08T00:29:58;10.90;99.90
39079;DHT22;24829;49.208;12.080;2023-08-08T00:32:23;10.90;99.90
39079;DHT22;24829;49.208;12.080;2023-08-08T00:34:49;10.80;99.90
39079;DHT22;24829;49.208;12.080;2023-08-08T00:37:14;10.90;99.90
39079;DHT22;24829;49.208;12.080;2023-08-08T00:39:40;10.90;99.90
39079;DHT22;24829;49.208;12.080;2023-08-08T00:42:07;10.90;99.90
39079;DHT22;24829;49.208;12.080;2023-08-08T00:44:33;10.90;99.90
39079;DHT22;24829;49.208;12.080;2023-08-08T00:46:59;10.90;99.90
39079;DHT22;24829;49.208;12.080;2023-08-08T00:49:24;10.90;99.90
39079;DHT22;24829;49.208;12.080;2023-08-08T00:51:50;10.90;99.90
39079;DHT22;24829;49.208;12.080;2023-08-08T00:54:15;10.90;99.90
39079;DHT22;24829;49.208;12.080;2023-08-08T00:56:41;10.90;99.90
39079;DHT22;24829;49.208;12.080;2023-08-08T00:59:08;10.90;99.90
39079;DHT22;24829;49.208;12.080;2023-08-08T01:01:36;10.90;99.90
39079;DHT22;24829;49.208;12.080;2023-08-08T01:04:02;10.90;99.90
39079;DHT22;24829;49.208;12.080;2023-08-08T01:06:57;10.90;99.90
39079;DHT22;24829;49.208;12.080;2023-08-08T01:09:41;10.90;99.90
39079;DHT22;24829;49.208;12.080;2023-08-08T01:12:11;10.90;99.90
39079;DHT22;24829;49.208;12.080;2023-08-08T01:14:38;10.90;99.90
39079;DHT22;24829;49.208;12.080;2023-08-08T01:17:06;10.90;99.90
39079;DHT22;24829;49.208;12.080;2023-08-08T01:19:32;11.00;99.90
39079;DHT22;24829;49.208;12.080;2023-08-08T01:22:08;11.00;99.90
39079;DHT22;24829;49.208;12.080;2023-08-08T01:24:34;11.00;99.90
39079;DHT22;24829;49.208;12.080;2023-08-08T01:27:03;11.00;99.90
39079;DHT22;24829;49.208;12.080;2023-08-08T01:29:28;11.00;99.90
39079;DHT22;24829;49.208;12.080;2023-08-08T01:31:55;10.90;99.90
39079;DHT22;24829;49.208;12.080;2023-08-08T01:34:21;10.90;99.90
39079;DHT22;24829;49.208;12.080;2023-08-08T01:36:56;10.90;99.90
39079;DHT22;24829;49.208;12.080;2023-08-08T01:39:26;10.90;99.90
39079;DHT22;24829;49.208;12.080;2023-08-08T01:41:54;10.90;99.90
39079;DHT22;24829;49.208;12.080;2023-08-08T01:44:21;10.90;99.90
39079;DHT22;24829;49.208;12.080;2023-08-08T01:46:48;10.90;99.90
39079;DHT22;24829;49.208;12.080;2023-08-08T01:49:14;10.90;99.90
39079;DHT22;24829;49.208;12.080;2023-08-08T01:51:39;11.00;99.90
39079;DHT22;24829;49.208;12.080;2023-08-08T01:54:05;11.00;99.90
39079;DHT22;24829;49.208;12.080;2023-08-08T01:56:30;11.00;99.90
39079;DHT22;24829;49.208;12.080;2023-08-08T01:58:56;11.00;99.90
39079;DHT22;24829;49.208;12.080;2023-08-08T02:01:22;11.00;99.90
39079;DHT22;24829;49.208;12.080;2023-08-08T02:03:47;11.00;99.90
39079;DHT22;24829;49.208;12.080;2023-08-08T02:06:13;11.00;99.90
39079;DHT22;24829;49.208;12.080;2023-08-08T02:08:38;11.00;99.90
39079;DHT22;24829;49.208;12.080;2023-08-08T02:11:04;11.10;99.90
39079;DHT22;24829;49.208;12.080;2023-08-08T02:13:29;11.00;99.90
39079;DHT22;24829;49.208;12.080;2023-08-08T02:15:55;11.00;99.90
39079;DHT22;24829;49.208;12.080;2023-08-08T02:18:21;11.00;99.90
39079;DHT22;24829;49.208;12.080;2023-08-08T02:20:47;11.00;99.90
39079;DHT22;24829;49.208;12.080;2023-08-08T02:23:12;11.00;99.90
39079;DHT22;24829;49.208;12.080;2023-08-08T02:25:38;11.00;99.90
39079;DHT22;24829;49.208;12.080;2023-08-08T02:28:03;11.00;99.90
39079;DHT22;24829;49.208;12.080;2023-08-08T02:30:29;11.00;99.90
39079;DHT22;24829;49.208;12.080;2023-08-08T02:32:55;11.00;99.90
39079;DHT22;24829;49.208;12.080;2023-08-08T02:35:20;11.00;99.90
39079;DHT22;24829;49.208;12.080;2023-08-08T02:37:46;11.00;99.90
39079;DHT22;24829;49.208;12.080;2023-08-08T02:40:11;11.10;99.90
39079;DHT22;24829;49.208;12.080;2023-08-08T02:42:37;11.10;99.90
39079;DHT22;24829;49.208;12.080;2023-08-08T02:45:03;11.10;99.90
39079;DHT22;24829;49.208;12.080;2023-08-08T02:47:28;11.10;99.90
39079;DHT22;24829;49.208;12.080;2023-08-08T02:49:54;11.10;99.90
39079;DHT22;24829;49.208;12.080;2023-08-08T02:52:19;11.10;99.90
39079;DHT22;24829;49.208;12.080;2023-08-08T02:54:45;11.10;99.90
39079;DHT22;24829;49.208;12.080;2023-08-08T02:57:10;11.10;99.90
39079;DHT22;24829;49.208;12.080;2023-08-08T02:59:37;11.10;99.90
39079;DHT22;24829;49.208;12.080;2023-08-08T03:02:03;11.10;99.90
39079;DHT22;24829;49.208;12.080;2023-08-08T03:04:29;11.10;99.90
39079;DHT22;24829;49.208;12.080;2023-08-08T03:06:55;11.10;99.90
39079;DHT22;24829;49.208;12.080;2023-08-08T03:09:20;11.10;99.90
39079;DHT22;24829;49.208;12.080;2023-08-08T03:11:46;11.10;99.90
39079;DHT22;24829;49.208;12.080;2023-08-08T03:14:11;11.20;99.90
39079;DHT22;24829;49.208;12.080;2023-08-08T03:16:37;11.20;99.90
39079;DHT22;24829;49.208;12.080;2023-08-08T03:19:02;11.20;99.90
39079;DHT22;24829;49.208;12.080;2023-08-08T03:21:28;11.20;99.90
39079;DHT22;24829;49.208;12.080;2023-08-08T03:23:54;11.20;99.90
39079;DHT22;24829;49.208;12.080;2023-08-08T03:26:19;11.10;99.90
39079;DHT22;24829;49.208;12.080;2023-08-08T03:28:45;11.10;99.90
39079;DHT22;24829;49.208;12.080;2023-08-08T03:31:15;11.00;99.90
39079;DHT22;24829;49.208;12.080;2023-08-08T03:33:42;11.00;99.90
39079;DHT22;24829;49.208;12.080;2023-08-08T03:36:07;11.00;99.90
39079;DHT22;24829;49.208;12.080;2023-08-08T03:38:33;11.00;99.90
39079;DHT22;24829;49.208;12.080;2023-08-08T03:40:59;10.90;99.90
39079;DHT22;24829;49.208;12.080;2023-08-08T03:43:25;11.00;99.90
39079;DHT22;24829;49.208;12.080;2023-08-08T03:45:50;11.00;99.90
39079;DHT22;24829;49.208;12.080;2023-08-08T03:48:16;11.00;99.90
39079;DHT22;24829;49.208;12.080;2023-08-08T03:50:41;11.00;99.90
39079;DHT22;24829;49.208;12.080;2023-08-08T03:53:07;11.10;99.90
39079;DHT22;24829;49.208;12.080;2023-08-08T03:55:32;11.10;99.90
39079;DHT22;24829;49.208;12.080;2023-08-08T03:57:59;11.20;99.90
39079;DHT22;24829;49.208;12.080;2023-08-08T04:00:24;11.20;99.90
39079;DHT22;24829;49.208;12.080;2023-08-08T04:02:50;11.20;99.90
39079;DHT22;24829;49.208;12.080;2023-08-08T04:05:15;11.30;99.90
39079;DHT22;24829;49.208;12.080;2023-08-08T04:07:41;11.30;99.90
39079;DHT22;24829;49.208;12.080;2023-08-08T04:10:07;11.30;99.90
39079;DHT22;24829;49.208;12.080;2023-08-08T04:12:32;11.30;99.90
39079;DHT22;24829;49.208;12.080;2023-08-08T04:14:58;11.30;99.90
39079;DHT22;24829;49.208;12.080;2023-08-08T04:17:24;11.40;99.90
39079;DHT22;24829;49.208;12.080;2023-08-08T04:19:49;11.50;99.90
39079;DHT22;24829;49.208;12.080;2023-08-08T04:22:16;11.50;99.90
39079;DHT22;24829;49.208;12.080;2023-08-08T04:24:41;11.50;99.90
39079;DHT22;24829;49.208;12.080;2023-08-08T04:27:07;11.50;99.90
39079;DHT22;24829;49.208;12.080;2023-08-08T04:29:33;11.60;99.90
39079;DHT22;24829;49.208;12.080;2023-08-08T04:31:58;11.60;99.90
39079;DHT22;24829;49.208;12.080;2023-08-08T04:34:24;11.50;99.90
39079;DHT22;24829;49.208;12.080;2023-08-08T04:36:49;11.60;99.90
39079;DHT22;24829;49.208;12.080;2023-08-08T04:39:15;11.50;99.90
39079;DHT22;24829;49.208;12.080;2023-08-08T04:41:41;11.60;99.90
39079;DHT22;24829;49.208;12.080;2023-08-08T04:44:06;11.50;99.90
39079;DHT22;24829;49.208;12.080;2023-08-08T04:46:32;11.60;99.90
39079;DHT22;24829;49.208;12.080;2023-08-08T04:48:57;11.50;99.90
39079;DHT22;24829;49.208;12.080;2023-08-08T04:51:23;11.50;99.90
39079;DHT22;24829;49.208;12.080;2023-08-08T04:53:49;11.50;99.90
39079;DHT22;24829;49.208;12.080;2023-08-08T04:56:14;11.50;99.90
39079;DHT22;24829;49.208;12.080;2023-08-08T04:58:40;11.50;99.90
39079;DHT22;24829;49.208;12.080;2023-08-08T05:01:05;11.60;99.90
39079;DHT22;24829;49.208;12.080;2023-08-08T05:03:32;11.60;99.90
39079;DHT22;24829;49.208;12.080;2023-08-08T05:05:58;11.60;99.90
39079;DHT22;24829;49.208;12.080;2023-08-08T05:08:24;11.70;99.90
39079;DHT22;24829;49.208;12.080;2023-08-08T05:10:50;11.70;99.90
39079;DHT22;24829;49.208;12.080;2023-08-08T05:13:15;11.70;99.90
39079;DHT22;24829;49.208;12.080;2023-08-08T05:15:41;11.70;99.90
39079;DHT22;24829;49.208;12.080;2023-08-08T05:18:06;11.70;99.90
39079;DHT22;24829;49.208;12.080;2023-08-08T05:20:32;11.80;99.90
39079;DHT22;24829;49.208;12.080;2023-08-08T05:22:57;11.80;99.90
39079;DHT22;24829;49.208;12.080;2023-08-08T05:25:23;11.90;99.90
39079;DHT22;24829;49.208;12.080;2023-08-08T05:27:49;12.10;99.90
39079;DHT22;24829;49.208;12.080;2023-08-08T05:30:15;12.60;99.90
39079;DHT22;24829;49.208;12.080;2023-08-08T05:32:40;13.30;99.90
39079;DHT22;24829;49.208;12.080;2023-08-08T05:35:06;13.80;99.90
39079;DHT22;24829;49.208;12.080;2023-08-08T05:37:33;14.40;99.90
39079;DHT22;24829;49.208;12.080;2023-08-08T05:39:59;15.00;99.90
39079;DHT22;24829;49.208;12.080;2023-08-08T05:42:24;15.50;99.90
39079;DHT22;24829;49.208;12.080;2023-08-08T05:44:50;16.10;99.90
39079;DHT22;24829;49.208;12.080;2023-08-08T05:47:15;16.60;99.90
39079;DHT22;24829;49.208;12.080;2023-08-08T05:49:41;17.00;99.90
39079;DHT22;24829;49.208;12.080;2023-08-08T05:52:08;17.50;99.90
39079;DHT22;24829;49.208;12.080;2023-08-08T05:54:33;17.80;99.90
39079;DHT22;24829;49.208;12.080;2023-08-08T05:56:59;18.00;99.90
39079;DHT22;24829;49.208;12.080;2023-08-08T05:59:24;18.10;99.90
39079;DHT22;24829;49.208;12.080;2023-08-08T06:01:50;18.40;99.90
39079;DHT22;24829;49.208;12.080;2023-08-08T06:04:16;18.60;99.90
39079;DHT22;24829;49.208;12.080;2023-08-08T06:06:41;18.70;99.90
39079;DHT22;24829;49.208;12.080;2023-08-08T06:09:07;18.80;99.90
39079;DHT22;24829;49.208;12.080;2023-08-08T06:11:34;19.00;99.90
39079;DHT22;24829;49.208;12.080;2023-08-08T06:14:00;19.00;99.90
39079;DHT22;24829;49.208;12.080;2023-08-08T06:16:25;19.20;99.90
39079;DHT22;24829;49.208;12.080;2023-08-08T06:18:52;19.40;99.90
39079;DHT22;24829;49.208;12.080;2023-08-08T06:21:17;19.40;99.90
39079;DHT22;24829;49.208;12.080;2023-08-08T06:23:43;19.60;99.90
39079;DHT22;24829;49.208;12.080;2023-08-08T06:26:08;19.50;99.90
39079;DHT22;24829;49.208;12.080;2023-08-08T06:28:34;19.80;99.90
39079;DHT22;24829;49.208;12.080;2023-08-08T06:31:00;20.00;99.90
39079;DHT22;24829;49.208;12.080;2023-08-08T06:33:26;20.10;99.90
39079;DHT22;24829;49.208;12.080;2023-08-08T06:35:52;20.20;99.90
39079;DHT22;24829;49.208;12.080;2023-08-08T06:38:17;20.40;99.90
39079;DHT22;24829;49.208;12.080;2023-08-08T06:40:43;20.60;99.90
39079;DHT22;24829;49.208;12.080;2023-08-08T06:43:08;20.70;99.90
39079;DHT22;24829;49.208;12.080;2023-08-08T06:45:34;20.70;99.90
39079;DHT22;24829;49.208;12.080;2023-08-08T06:48:00;20.80;99.90
39079;DHT22;24829;49.208;12.080;2023-08-08T06:50:26;20.80;99.90
39079;DHT22;24829;49.208;12.080;2023-08-08T06:52:51;20.90;99.90
39079;DHT22;24829;49.208;12.080;2023-08-08T06:55:17;20.90;99.90
39079;DHT22;24829;49.208;12.080;2023-08-08T06:57:43;20.90;99.90
39079;DHT22;24829;49.208;12.080;2023-08-08T07:00:09;21.00;99.90
39079;DHT22;24829;49.208;12.080;2023-08-08T07:02:37;21.00;99.90
39079;DHT22;24829;49.208;12.080;2023-08-08T07:05:03;21.10;99.90
39079;DHT22;24829;49.208;12.080;2023-08-08T07:07:29;21.00;99.90
39079;DHT22;24829;49.208;12.080;2023-08-08T07:09:56;20.90;99.90
39079;DHT22;24829;49.208;12.080;2023-08-08T07:12:21;20.90;99.90
39079;DHT22;24829;49.208;12.080;2023-08-08T07:14:47;20.90;99.90
39079;DHT22;24829;49.208;12.080;2023-08-08T07:17:12;20.90;99.90
39079;DHT22;24829;49.208;12.080;2023-08-08T07:19:38;21.10;99.90
39079;DHT22;24829;49.208;12.080;2023-08-08T07:22:03;21.10;99.90
39079;DHT22;24829;49.208;12.080;2023-08-08T07:24:29;20.90;99.90
39079;DHT22;24829;49.208;12.080;2023-08-08T07:26:56;20.80;99.90
39079;DHT22;24829;49.208;12.080;2023-08-08T07:29:21;20.90;99.90
39079;DHT22;24829;49.208;12.080;2023-08-08T07:31:47;20.90;99.90
39079;DHT22;24829;49.208;12.080;2023-08-08T07:34:12;20.90;99.90
39079;DHT22;24829;49.208;12.080;2023-08-08T07:36:38;21.10;99.90
39079;DHT22;24829;49.208;12.080;2023-08-08T07:39:03;21.30;99.90
39079;DHT22;24829;49.208;12.080;2023-08-08T07:41:30;21.50;99.90
39079;DHT22;24829;49.208;12.080;2023-08-08T07:43:56;21.40;99.90
39079;DHT22;24829;49.208;12.080;2023-08-08T07:46:22;21.00;99.90
39079;DHT22;24829;49.208;12.080;2023-08-08T07:48:47;20.90;99.90
39079;DHT22;24829;49.208;12.080;2023-08-08T07:51:13;21.00;99.90
39079;DHT22;24829;49.208;12.080;2023-08-08T07:53:39;21.20;99.90
39079;DHT22;24829;49.208;12.080;2023-08-08T07:56:04;21.30;99.90
39079;DHT22;24829;49.208;12.080;2023-08-08T07:58:32;21.20;99.90
39079;DHT22;24829;49.208;12.080;2023-08-08T08:00:57;21.30;99.90
39079;DHT22;24829;49.208;12.080;2023-08-08T08:03:25;21.50;99.90
39079;DHT22;24829;49.208;12.080;2023-08-08T08:05:51;21.40;99.90
39079;DHT22;24829;49.208;12.080;2023-08-08T08:08:16;21.30;99.90
39079;DHT22;24829;49.208;12.080;2023-08-08T08:10:42;21.00;99.90
39079;DHT22;24829;49.208;12.080;2023-08-08T08:13:08;20.70;99.90
39079;DHT22;24829;49.208;12.080;2023-08-08T08:15:33;20.50;99.90
39079;DHT22;24829;49.208;12.080;2023-08-08T08:17:59;20.30;99.90
39079;DHT22;24829;49.208;12.080;2023-08-08T08:20:25;20.00;99.90
39079;DHT22;24829;49.208;12.080;2023-08-08T08:22:50;19.90;99.90
39079;DHT22;24829;49.208;12.080;2023-08-08T08:25:16;19.90;99.90
39079;DHT22;24829;49.208;12.080;2023-08-08T08:27:41;19.90;99.90
39079;DHT22;24829;49.208;12.080;2023-08-08T08:30:08;19.70;99.90
39079;DHT22;24829;49.208;12.080;2023-08-08T08:32:35;19.80;99.90
39079;DHT22;24829;49.208;12.080;2023-08-08T08:35:02;20.00;99.90
39079;DHT22;24829;49.208;12.080;2023-08-08T08:37:29;20.30;99.90
39079;DHT22;24829;49.208;12.080;2023-08-08T08:39:55;20.60;99.90
39079;DHT22;24829;49.208;12.080;2023-08-08T08:42:20;20.80;99.90
39079;DHT22;24829;49.208;12.080;2023-08-08T08:44:47;20.80;99.90
39079;DHT22;24829;49.208;12.080;2023-08-08T08:47:17;21.10;99.90
39079;DHT22;24829;49.208;12.080;2023-08-08T08:49:45;21.30;99.90
39079;DHT22;24829;49.208;12.080;2023-08-08T08:52:11;21.60;99.90
39079;DHT22;24829;49.208;12.080;2023-08-08T08:54:38;21.80;99.90
39079;DHT22;24829;49.208;12.080;2023-08-08T08:57:04;22.10;99.90
39079;DHT22;24829;49.208;12.080;2023-08-08T08:59:29;22.40;99.90
39079;DHT22;24829;49.208;12.080;2023-08-08T09:01:56;22.50;99.90
39079;DHT22;24829;49.208;12.080;2023-08-08T09:04:22;22.50;99.90
39079;DHT22;24829;49.208;12.080;2023-08-08T09:06:50;22.50;99.90
39079;DHT22;24829;49.208;12.080;2023-08-08T09:09:16;22.60;99.90
39079;DHT22;24829;49.208;12.080;2023-08-08T09:11:45;22.60;99.90
39079;DHT22;24829;49.208;12.080;2023-08-08T09:14:20;22.50;99.90
39079;DHT22;24829;49.208;12.080;2023-08-08T09:16:46;22.60;99.90
39079;DHT22;24829;49.208;12.080;2023-08-08T09:19:16;22.70;99.90
39079;DHT22;24829;49.208;12.080;2023-08-08T09:21:43;22.70;99.90
39079;DHT22;24829;49.208;12.080;2023-08-08T09:24:09;22.40;99.90
39079;DHT22;24829;49.208;12.080;2023-08-08T09:26:34;22.10;99.90
39079;DHT22;24829;49.208;12.080;2023-08-08T09:29:01;21.70;99.90
39079;DHT22;24829;49.208;12.080;2023-08-08T09:31:27;21.50;99.90
39079;DHT22;24829;49.208;12.080;2023-08-08T09:33:55;21.20;99.90
39079;DHT22;24829;49.208;12.080;2023-08-08T09:36:22;21.20;99.90
39079;DHT22;24829;49.208;12.080;2023-08-08T09:38:49;21.10;99.90
39079;DHT22;24829;49.208;12.080;2023-08-08T09:41:14;21.00;99.90
39079;DHT22;24829;49.208;12.080;2023-08-08T09:43:43;20.80;99.90
39079;DHT22;24829;49.208;12.080;2023-08-08T09:46:09;20.70;99.90
39079;DHT22;24829;49.208;12.080;2023-08-08T09:48:35;20.50;99.90
39079;DHT22;24829;49.208;12.080;2023-08-08T09:51:04;20.30;99.90
39079;DHT22;24829;49.208;12.080;2023-08-08T09:53:30;20.10;99.90
39079;DHT22;24829;49.208;12.080;2023-08-08T09:55:56;20.10;99.90
39079;DHT22;24829;49.208;12.080;2023-08-08T09:58:23;20.40;99.90
39079;DHT22;24829;49.208;12.080;2023-08-08T10:00:50;20.70;99.90
39079;DHT22;24829;49.208;12.080;2023-08-08T10:03:19;20.90;99.90
39079;DHT22;24829;49.208;12.080;2023-08-08T10:05:45;20.90;99.90
39079;DHT22;24829;49.208;12.080;2023-08-08T10:08:11;21.00;99.90
39079;DHT22;24829;49.208;12.080;2023-08-08T10:10:41;20.90;99.90
39079;DHT22;24829;49.208;12.080;2023-08-08T10:13:07;21.00;99.90
39079;DHT22;24829;49.208;12.080;2023-08-08T10:15:37;21.10;99.90
39079;DHT22;24829;49.208;12.080;2023-08-08T10:18:03;21.30;99.90
39079;DHT22;24829;49.208;12.080;2023-08-08T10:20:31;21.40;99.90
39079;DHT22;24829;49.208;12.080;2023-08-08T10:22:59;21.50;99.90
39079;DHT22;24829;49.208;12.080;2023-08-08T10:25:27;21.60;99.90
39079;DHT22;24829;49.208;12.080;2023-08-08T10:28:09;21.60;99.90
39079;DHT22;24829;49.208;12.080;2023-08-08T10:30:52;21.70;99.90
39079;DHT22;24829;49.208;12.080;2023-08-08T10:33:27;21.50;99.90
39079;DHT22;24829;49.208;12.080;2023-08-08T10:36:00;21.40;99.90
39079;DHT22;24829;49.208;12.080;2023-08-08T10:38:37;21.30;99.90
39079;DHT22;24829;49.208;12.080;2023-08-08T10:41:03;21.30;99.90
39079;DHT22;24829;49.208;12.080;2023-08-08T10:43:30;21.60;99.90
39079;DHT22;24829;49.208;12.080;2023-08-08T10:46:01;21.90;99.90
39079;DHT22;24829;49.208;12.080;2023-08-08T10:48:27;22.20;99.90
39079;DHT22;24829;49.208;12.080;2023-08-08T10:51:00;22.50;99.90
39079;DHT22;24829;49.208;12.080;2023-08-08T10:53:27;22.50;99.90
39079;DHT22;24829;49.208;12.080;2023-08-08T10:56:02;22.60;99.20
39079;DHT22;24829;49.208;12.080;2023-08-08T10:58:42;22.60;98.60
39079;DHT22;24829;49.208;12.080;2023-08-08T11:01:12;22.70;98.00
39079;DHT22;24829;49.208;12.080;2023-08-08T11:03:39;22.80;97.00
39079;DHT22;24829;49.208;12.080;2023-08-08T11:06:09;22.80;96.90
39079;DHT22;24829;49.208;12.080;2023-08-08T11:08:36;22.90;97.30
39079;DHT22;24829;49.208;12.080;2023-08-08T11:11:04;23.00;96.80
39079;DHT22;24829;49.208;12.080;2023-08-08T11:13:30;23.10;95.50
39079;DHT22;24829;49.208;12.080;2023-08-08T11:15:55;23.00;95.60
39079;DHT22;24829;49.208;12.080;2023-08-08T11:18:21;22.90;94.80
39079;DHT22;24829;49.208;12.080;2023-08-08T11:20:48;22.80;93.80
39079;DHT22;24829;49.208;12.080;2023-08-08T11:23:13;22.70;94.20
39079;DHT22;24829;49.208;12.080;2023-08-08T11:25:43;22.70;94.50
39079;DHT22;24829;49.208;12.080;2023-08-08T11:28:09;22.60;94.80
39079;DHT22;24829;49.208;12.080;2023-08-08T11:30:38;22.60;94.30
39079;DHT22;24829;49.208;12.080;2023-08-08T11:33:05;22.60;94.40
39079;DHT22;24829;49.208;12.080;2023-08-08T11:35:31;22.70;94.20
39079;DHT22;24829;49.208;12.080;2023-08-08T11:37:58;22.70;93.70
39079;DHT22;24829;49.208;12.080;2023-08-08T11:40:27;22.70;93.70
39079;DHT22;24829;49.208;12.080;2023-08-08T11:42:54;22.70;93.40
39079;DHT22;24829;49.208;12.080;2023-08-08T11:45:21;22.40;94.20
39079;DHT22;24829;49.208;12.080;2023-08-08T11:47:50;22.40;94.90
39079;DHT22;24829;49.208;12.080;2023-08-08T11:50:20;22.40;94.60
39079;DHT22;24829;49.208;12.080;2023-08-08T11:52:48;22.60;94.60
39079;DHT22;24829;49.208;12.080;2023-08-08T11:55:15;22.70;93.70
39079;DHT22;24829;49.208;12.080;2023-08-08T11:57:41;22.70;94.00
39079;DHT22;24829;49.208;12.080;2023-08-08T12:00:11;22.80;94.30
39079;DHT22;24829;49.208;12.080;2023-08-08T12:02:43;22.70;93.30
39079;DHT22;24829;49.208;12.080;2023-08-08T12:05:13;22.50;93.00
39079;DHT22;24829;49.208;12.080;2023-08-08T12:07:42;22.30;93.60
39079;DHT22;24829;49.208;12.080;2023-08-08T12:10:21;22.10;93.70
39079;DHT22;24829;49.208;12.080;2023-08-08T12:12:56;22.20;94.10
39079;DHT22;24829;49.208;12.080;2023-08-08T12:15:24;22.20;93.90
39079;DHT22;24829;49.208;12.080;2023-08-08T12:17:49;22.20;93.80
39079;DHT22;24829;49.208;12.080;2023-08-08T12:20:15;22.20;93.90
39079;DHT22;24829;49.208;12.080;2023-08-08T12:22:41;22.10;94.70
39079;DHT22;24829;49.208;12.080;2023-08-08T12:25:07;22.20;93.90
39079;DHT22;24829;49.208;12.080;2023-08-08T12:27:33;22.30;93.20
39079;DHT22;24829;49.208;12.080;2023-08-08T12:30:00;22.30;92.50
39079;DHT22;24829;49.208;12.080;2023-08-08T12:32:27;22.30;92.90
39079;DHT22;24829;49.208;12.080;2023-08-08T12:34:57;22.30;92.50
39079;DHT22;24829;49.208;12.080;2023-08-08T12:37:23;22.30;93.40
39079;DHT22;24829;49.208;12.080;2023-08-08T12:39:49;22.40;92.50
39079;DHT22;24829;49.208;12.080;2023-08-08T12:42:15;22.40;92.10
39079;DHT22;24829;49.208;12.080;2023-08-08T12:44:40;22.30;92.50
39079;DHT22;24829;49.208;12.080;2023-08-08T12:47:06;22.20;92.30
39079;DHT22;24829;49.208;12.080;2023-08-08T12:49:31;22.40;92.00
39079;DHT22;24829;49.208;12.080;2023-08-08T12:51:57;22.50;91.40
39079;DHT22;24829;49.208;12.080;2023-08-08T12:54:22;22.40;90.50
39079;DHT22;24829;49.208;12.080;2023-08-08T12:56:48;22.40;91.40
39079;DHT22;24829;49.208;12.080;2023-08-08T12:59:14;22.30;90.30
39079;DHT22;24829;49.208;12.080;2023-08-08T13:01:39;22.30;90.20
39079;DHT22;24829;49.208;12.080;2023-08-08T13:04:05;22.30;90.20
39079;DHT22;24829;49.208;12.080;2023-08-08T13:06:31;22.20;90.40
39079;DHT22;24829;49.208;12.080;2023-08-08T13:08:56;22.20;90.00
39079;DHT22;24829;49.208;12.080;2023-08-08T13:11:22;22.20;88.30
39079;DHT22;24829;49.208;12.080;2023-08-08T13:13:48;22.10;88.90
39079;DHT22;24829;49.208;12.080;2023-08-08T13:16:13;22.20;89.10
39079;DHT22;24829;49.208;12.080;2023-08-08T13:18:39;22.10;89.60
39079;DHT22;24829;49.208;12.080;2023-08-08T13:21:05;22.00;90.40
39079;DHT22;24829;49.208;12.080;2023-08-08T13:23:32;22.00;90.20
39079;DHT22;24829;49.208;12.080;2023-08-08T13:25:57;22.10;90.50
39079;DHT22;24829;49.208;12.080;2023-08-08T13:28:23;22.20;90.50
39079;DHT22;24829;49.208;12.080;2023-08-08T13:30:48;22.20;89.50
39079;DHT22;24829;49.208;12.080;2023-08-08T13:33:14;22.20;89.10
39079;DHT22;24829;49.208;12.080;2023-08-08T13:35:40;22.30;87.90
39079;DHT22;24829;49.208;12.080;2023-08-08T13:38:05;22.30;88.50
39079;DHT22;24829;49.208;12.080;2023-08-08T13:40:32;22.30;88.10
39079;DHT22;24829;49.208;12.080;2023-08-08T13:42:57;22.40;88.60
39079;DHT22;24829;49.208;12.080;2023-08-08T13:45:23;22.40;88.50
39079;DHT22;24829;49.208;12.080;2023-08-08T13:47:49;22.40;88.20
39079;DHT22;24829;49.208;12.080;2023-08-08T13:50:15;22.40;88.70
39079;DHT22;24829;49.208;12.080;2023-08-08T13:52:41;22.50;89.00
39079;DHT22;24829;49.208;12.080;2023-08-08T13:55:08;22.50;89.80
39079;DHT22;24829;49.208;12.080;2023-08-08T13:57:34;22.40;88.30
39079;DHT22;24829;49.208;12.080;2023-08-08T14:00:00;22.30;88.90
39079;DHT22;24829;49.208;12.080;2023-08-08T14:02:26;22.30;89.50
39079;DHT22;24829;49.208;12.080;2023-08-08T14:04:51;22.20;89.90
39079;DHT22;24829;49.208;12.080;2023-08-08T14:07:18;22.20;89.70
39079;DHT22;24829;49.208;12.080;2023-08-08T14:09:44;22.30;88.40
39079;DHT22;24829;49.208;12.080;2023-08-08T14:12:10;22.40;87.40
39079;DHT22;24829;49.208;12.080;2023-08-08T14:14:35;22.50;85.60
39079;DHT22;24829;49.208;12.080;2023-08-08T14:17:01;22.40;80.70
39079;DHT22;24829;49.208;12.080;2023-08-08T14:19:26;22.30;84.00
39079;DHT22;24829;49.208;12.080;2023-08-08T14:21:52;22.30;81.00
39079;DHT22;24829;49.208;12.080;2023-08-08T14:24:17;22.20;81.90
39079;DHT22;24829;49.208;12.080;2023-08-08T14:26:44;22.10;81.50
39079;DHT22;24829;49.208;12.080;2023-08-08T14:29:10;22.00;80.30
39079;DHT22;24829;49.208;12.080;2023-08-08T14:31:35;22.00;82.70
39079;DHT22;24829;49.208;12.080;2023-08-08T14:34:02;21.90;83.10
39079;DHT22;24829;49.208;12.080;2023-08-08T14:36:28;21.90;83.10
39079;DHT22;24829;49.208;12.080;2023-08-08T14:38:54;21.90;82.40
39079;DHT22;24829;49.208;12.080;2023-08-08T14:41:20;21.90;83.40
39079;DHT22;24829;49.208;12.080;2023-08-08T14:43:46;21.80;84.30
39079;DHT22;24829;49.208;12.080;2023-08-08T14:46:11;21.80;84.10
39079;DHT22;24829;49.208;12.080;2023-08-08T14:48:37;22.00;83.50
39079;DHT22;24829;49.208;12.080;2023-08-08T14:51:02;22.00;84.00
39079;DHT22;24829;49.208;12.080;2023-08-08T14:53:28;22.10;82.40
39079;DHT22;24829;49.208;12.080;2023-08-08T14:55:54;22.20;85.40
39079;DHT22;24829;49.208;12.080;2023-08-08T14:58:20;22.20;85.00
39079;DHT22;24829;49.208;12.080;2023-08-08T15:00:45;22.20;84.80
39079;DHT22;24829;49.208;12.080;2023-08-08T15:03:11;22.10;84.50
39079;DHT22;24829;49.208;12.080;2023-08-08T15:05:39;22.00;85.00
39079;DHT22;24829;49.208;12.080;2023-08-08T15:08:05;22.00;83.60
39079;DHT22;24829;49.208;12.080;2023-08-08T15:10:31;21.90;85.10